createdAt,value
2022-12-13T00:01:20.682Z,14.90
2022-12-13T00:03:22.958Z,15.00
2022-12-13T00:05:25.091Z,15.10
2022-12-13T00:07:27.267Z,14.90
2022-12-13T00:09:29.428Z,15.00
2022-12-13T00:11:31.847Z,14.90
2022-12-13T00:13:34.773Z,14.90
2022-12-13T00:15:37.984Z,15.00
2022-12-13T00:17:39.945Z,15.00
2022-12-13T00:19:42.144Z,15.00
2022-12-13T00:21:44.307Z,15.00
2022-12-13T00:23:46.767Z,14.90
2022-12-13T00:25:48.992Z,15.00
2022-12-13T00:27:51.050Z,14.90
2022-12-13T00:29:53.144Z,15.00
2022-12-13T00:32:02.435Z,14.90
2022-12-13T00:34:04.487Z,15.00
2022-12-13T00:36:07.263Z,15.00
2022-12-13T00:38:09.752Z,15.00
2022-12-13T00:40:12.058Z,15.00
2022-12-13T00:42:14.229Z,14.90
2022-12-13T00:44:16.345Z,15.00
2022-12-13T00:46:19.232Z,15.00
2022-12-13T00:48:21.461Z,15.00
2022-12-13T00:50:23.599Z,15.00
2022-12-13T00:52:28.966Z,14.90
2022-12-13T00:54:34.531Z,14.90
2022-12-13T00:56:39.059Z,14.90
2022-12-13T00:58:50.165Z,15.00
2022-12-13T01:01:06.090Z,14.80
2022-12-13T01:03:10.875Z,14.90
2022-12-13T01:05:14.231Z,15.00
2022-12-13T01:07:20.913Z,15.00
2022-12-13T01:09:25.256Z,14.90
2022-12-13T01:11:27.572Z,15.00
2022-12-13T01:13:30.712Z,14.80
2022-12-13T01:15:44.823Z,15.00
2022-12-13T01:17:50.618Z,14.80
2022-12-13T01:19:53.607Z,15.00
2022-12-13T01:22:00.995Z,15.00
2022-12-13T01:24:07.853Z,15.00
2022-12-13T01:26:19.737Z,14.80
2022-12-13T01:28:25.486Z,14.80
2022-12-13T01:30:42.476Z,15.00
2022-12-13T01:32:45.299Z,14.90
2022-12-13T01:34:52.530Z,14.90
2022-12-13T01:36:58.020Z,14.90
2022-12-13T01:39:14.816Z,14.90
2022-12-13T01:41:31.833Z,14.90
2022-12-13T01:43:38.574Z,15.00
2022-12-13T01:45:41.894Z,15.00
2022-12-13T01:47:49.223Z,14.80
2022-12-13T01:49:54.044Z,14.90
2022-12-13T01:52:18.131Z,14.90
2022-12-13T01:54:34.022Z,14.80
2022-12-13T01:56:42.466Z,14.90
2022-12-13T01:58:46.089Z,14.90
2022-12-13T02:00:53.441Z,14.90
2022-12-13T02:02:58.602Z,14.90
2022-12-13T02:05:08.910Z,14.90
2022-12-13T02:07:22.978Z,14.80
2022-12-13T02:09:32.650Z,14.80
2022-12-13T02:11:39.362Z,14.90
2022-12-13T02:13:41.943Z,14.80
2022-12-13T02:16:07.541Z,14.90
2022-12-13T02:18:20.583Z,14.90
2022-12-13T02:23:09.328Z,14.90
2022-12-13T02:25:44.133Z,14.90
2022-12-13T02:27:53.000Z,14.90
2022-12-13T02:30:24.069Z,14.90
2022-12-13T02:32:43.360Z,14.70
2022-12-13T02:49:13.206Z,14.80
2022-12-13T02:51:18.086Z,14.80
2022-12-13T02:53:20.903Z,14.80
2022-12-13T02:55:27.904Z,14.90
2022-12-13T02:57:37.655Z,14.70
2022-12-13T02:59:40.158Z,14.80
2022-12-13T03:01:42.187Z,14.90
2022-12-13T03:03:53.151Z,14.80
2022-12-13T03:06:00.859Z,14.80
2022-12-13T03:08:13.849Z,14.80
2022-12-13T03:10:19.250Z,14.70
2022-12-13T03:12:30.724Z,14.80
2022-12-13T03:14:33.518Z,14.80
2022-12-13T03:16:38.357Z,14.70
2022-12-13T03:18:41.282Z,14.90
2022-12-13T03:23:13.881Z,14.90
2022-12-13T03:25:32.024Z,14.90
2022-12-13T03:27:35.455Z,14.80
2022-12-13T03:29:38.484Z,14.90
2022-12-13T03:31:43.779Z,14.80
2022-12-13T03:33:51.554Z,14.80
2022-12-13T03:35:57.326Z,14.80
2022-12-13T03:38:01.184Z,14.80
2022-12-13T03:40:07.561Z,14.70
2022-12-13T03:42:13.930Z,14.80
2022-12-13T03:44:16.337Z,14.80
2022-12-13T03:46:23.010Z,14.80
2022-12-13T03:48:27.571Z,14.80
2022-12-13T03:50:30.736Z,14.80
2022-12-13T03:52:34.452Z,14.80
2022-12-13T03:54:41.044Z,14.80
2022-12-13T03:56:50.074Z,14.70
2022-12-13T03:58:56.470Z,14.70
2022-12-13T04:01:05.709Z,14.80
2022-12-13T04:03:10.726Z,14.80
2022-12-13T04:05:17.703Z,14.70
2022-12-13T04:07:24.463Z,14.70
2022-12-13T04:09:31.542Z,14.80
2022-12-13T04:11:34.341Z,14.70
2022-12-13T04:13:39.985Z,14.80
2022-12-13T04:15:43.846Z,14.80
2022-12-13T04:17:51.131Z,14.90
2022-12-13T04:19:58.008Z,14.80
2022-12-13T04:22:09.937Z,14.90
2022-12-13T04:24:12.446Z,14.80
2022-12-13T04:26:21.080Z,14.80
2022-12-13T04:28:38.830Z,14.70
2022-12-13T04:30:43.201Z,14.70
2022-12-13T04:32:52.178Z,14.80
2022-12-13T04:35:00.913Z,14.70
2022-12-13T04:37:07.031Z,14.70
2022-12-13T04:39:22.256Z,14.80
2022-12-13T04:41:34.277Z,14.70
2022-12-13T04:43:38.655Z,14.80
2022-12-13T04:45:49.784Z,14.70
2022-12-13T04:47:53.942Z,14.70
2022-12-13T04:49:59.458Z,14.80
2022-12-13T04:52:03.743Z,14.80
2022-12-13T04:54:24.551Z,14.70
2022-12-13T04:56:31.026Z,14.80
2022-12-13T04:58:34.579Z,14.80
2022-12-13T05:00:37.721Z,14.80
2022-12-13T05:02:41.828Z,14.80
2022-12-13T05:04:45.369Z,14.70
2022-12-13T05:06:47.845Z,14.80
2022-12-13T05:09:01.189Z,14.70
2022-12-13T05:11:12.431Z,14.80
2022-12-13T05:13:20.271Z,14.80
2022-12-13T05:15:22.473Z,14.80
2022-12-13T05:17:35.403Z,14.80
2022-12-13T05:19:42.878Z,14.80
2022-12-13T05:21:50.175Z,14.80
2022-12-13T05:23:55.821Z,14.80
2022-12-13T05:26:00.060Z,14.70
2022-12-13T05:28:08.890Z,14.70
2022-12-13T05:30:35.106Z,14.70
2022-12-13T05:32:43.487Z,14.70
2022-12-13T05:34:46.635Z,14.70
2022-12-13T05:36:48.599Z,14.70
2022-12-13T05:38:59.317Z,14.70
2022-12-13T05:41:01.436Z,14.70
2022-12-13T05:43:21.985Z,14.70
2022-12-13T05:45:27.810Z,14.70
2022-12-13T05:47:29.903Z,14.70
2022-12-13T05:49:31.835Z,14.70
2022-12-13T05:51:42.741Z,14.70
2022-12-13T05:53:53.086Z,14.70
2022-12-13T05:55:57.622Z,14.70
2022-12-13T05:58:02.316Z,14.70
2022-12-13T06:00:06.196Z,14.70
2022-12-13T06:02:30.789Z,14.70
2022-12-13T06:04:32.755Z,14.70
2022-12-13T06:06:34.775Z,14.70
2022-12-13T06:08:36.993Z,14.70
2022-12-13T06:10:41.911Z,14.70
2022-12-13T06:12:46.565Z,14.70
2022-12-13T06:14:48.871Z,14.80
2022-12-13T06:16:54.674Z,14.80
2022-12-13T06:19:03.593Z,14.80
2022-12-13T06:21:09.455Z,14.80
2022-12-13T06:23:14.486Z,14.70
2022-12-13T06:25:30.935Z,14.70
2022-12-13T06:27:34.096Z,14.70
2022-12-13T06:29:38.634Z,14.70
2022-12-13T06:31:46.909Z,14.70
2022-12-13T06:33:57.323Z,14.70
2022-12-13T06:36:08.485Z,14.60
2022-12-13T06:38:12.144Z,14.60
2022-12-13T06:40:16.675Z,14.70
2022-12-13T06:42:25.868Z,14.60
2022-12-13T06:44:36.794Z,14.70
2022-12-13T06:46:48.995Z,14.60
2022-12-13T06:48:52.188Z,14.70
2022-12-13T06:50:54.256Z,14.60
2022-12-13T06:52:59.469Z,14.60
2022-12-13T06:55:07.244Z,14.70
2022-12-13T06:57:12.338Z,14.70
2022-12-13T06:59:14.430Z,14.70
2022-12-13T07:01:24.192Z,14.60
2022-12-13T07:03:35.495Z,14.60
2022-12-13T07:05:38.349Z,14.60
2022-12-13T07:07:54.687Z,14.70
2022-12-13T07:09:57.009Z,14.60
2022-12-13T07:12:00.405Z,14.70
2022-12-13T07:14:05.273Z,14.70
2022-12-13T07:16:08.354Z,14.80
2022-12-13T07:20:35.239Z,14.70
2022-12-13T07:22:48.514Z,14.70
2022-12-13T07:24:52.328Z,14.70
2022-12-13T07:26:57.555Z,14.70
2022-12-13T07:29:03.199Z,14.70
2022-12-13T07:31:15.695Z,14.70
2022-12-13T07:33:22.216Z,14.70
2022-12-13T07:35:27.553Z,14.80
2022-12-13T07:37:31.143Z,14.80
2022-12-13T07:39:36.525Z,14.80
2022-12-13T07:41:38.362Z,14.80
2022-12-13T07:43:42.645Z,14.70
2022-12-13T07:45:44.831Z,14.70
2022-12-13T07:47:50.313Z,14.80
2022-12-13T07:49:52.297Z,14.80
2022-12-13T07:51:54.343Z,14.80
2022-12-13T07:53:58.905Z,14.80
2022-12-13T07:56:04.828Z,14.80
2022-12-13T07:58:10.300Z,14.80
2022-12-13T08:00:17.914Z,14.80
2022-12-13T08:02:42.143Z,14.80
2022-12-13T08:04:54.479Z,14.80
2022-12-13T08:06:57.069Z,14.80
2022-12-13T08:11:52.364Z,14.40
2022-12-13T08:14:15.893Z,14.70
2022-12-13T08:16:27.615Z,14.80
2022-12-13T08:18:33.069Z,14.90
2022-12-13T08:22:55.651Z,14.80
2022-12-13T08:25:23.132Z,14.80
2022-12-13T08:27:42.891Z,14.80
2022-12-13T08:29:48.025Z,14.80
2022-12-13T08:31:49.950Z,14.80
2022-12-13T08:33:58.080Z,14.80
2022-12-13T08:36:10.061Z,14.80
2022-12-13T08:38:14.782Z,14.90
2022-12-13T08:40:25.773Z,14.90
2022-12-13T08:42:33.595Z,14.90
2022-12-13T08:44:42.190Z,14.90
2022-12-13T08:46:44.172Z,14.90
2022-12-13T08:48:46.132Z,14.90
2022-12-13T08:50:48.223Z,14.80
2022-12-13T08:52:51.273Z,14.80
2022-12-13T08:54:53.234Z,14.80
2022-12-13T08:56:55.466Z,14.80
2022-12-13T08:58:57.427Z,14.80
2022-12-13T09:00:59.727Z,14.80
2022-12-13T09:03:01.797Z,14.90
2022-12-13T09:05:04.207Z,14.80
2022-12-13T09:07:06.048Z,14.80
2022-12-13T09:09:08.054Z,14.90
2022-12-13T09:11:32.972Z,14.80
2022-12-13T09:13:43.182Z,14.80
2022-12-13T09:15:48.701Z,14.90
2022-12-13T09:17:52.580Z,14.90
2022-12-13T09:19:57.885Z,14.90
2022-12-13T09:22:09.211Z,14.90
2022-12-13T09:24:24.257Z,14.80
2022-12-13T09:26:27.027Z,14.90
2022-12-13T09:28:31.740Z,14.90
2022-12-13T09:30:37.628Z,14.90
2022-12-13T09:32:52.743Z,14.90
2022-12-13T09:35:01.620Z,14.90
2022-12-13T09:37:14.957Z,14.90
2022-12-13T09:39:30.030Z,14.90
2022-12-13T09:42:10.842Z,14.90
2022-12-13T09:44:43.936Z,14.80
2022-12-13T09:46:53.335Z,14.90
2022-12-13T09:49:04.676Z,14.80
2022-12-13T09:51:16.951Z,14.90
2022-12-13T09:53:24.099Z,14.90
2022-12-13T09:55:34.554Z,14.90
2022-12-13T09:57:37.832Z,14.90
2022-12-13T09:59:41.463Z,14.90
2022-12-13T10:01:44.919Z,15.00
2022-12-13T10:03:51.258Z,15.00
2022-12-13T10:06:22.728Z,15.00
2022-12-13T10:08:28.853Z,15.00
2022-12-13T10:10:30.807Z,14.90
2022-12-13T10:12:33.536Z,15.00
2022-12-13T10:14:40.911Z,15.10
2022-12-13T10:16:46.292Z,15.10
2022-12-13T10:18:51.764Z,15.10
2022-12-13T10:20:58.636Z,15.10
2022-12-13T10:26:03.415Z,15.00
2022-12-13T10:28:06.330Z,15.00
2022-12-13T10:30:17.610Z,15.00
2022-12-13T10:32:21.199Z,15.00
2022-12-13T10:34:30.513Z,15.10
2022-12-13T10:36:35.972Z,15.20
2022-12-13T10:38:45.492Z,15.10
2022-12-13T10:40:47.460Z,15.10
2022-12-13T10:43:07.664Z,15.10
2022-12-13T10:45:23.066Z,15.10
2022-12-13T10:47:28.408Z,15.20
2022-12-13T10:49:37.945Z,15.20
2022-12-13T10:51:40.379Z,15.20
2022-12-13T10:53:47.727Z,15.20
2022-12-13T10:55:54.704Z,15.20
2022-12-13T10:58:01.195Z,15.20
2022-12-13T11:00:03.504Z,15.10
2022-12-13T11:02:24.306Z,15.10
2022-12-13T11:04:30.400Z,15.20
2022-12-13T11:06:45.564Z,15.20
2022-12-13T11:08:47.462Z,14.40
2022-12-13T11:10:59.786Z,14.50
2022-12-13T11:13:06.131Z,14.80
2022-12-13T11:15:08.838Z,15.00
2022-12-13T11:17:15.225Z,15.20
2022-12-13T11:19:19.846Z,15.30
2022-12-13T11:21:32.505Z,15.30
2022-12-13T11:23:34.354Z,15.30
2022-12-13T11:25:39.275Z,15.30
2022-12-13T11:27:41.108Z,15.30
2022-12-13T11:29:51.974Z,15.40
2022-12-13T11:31:53.845Z,15.40
2022-12-13T11:33:55.618Z,15.30
2022-12-13T11:36:00.272Z,15.30
2022-12-13T11:38:11.853Z,15.30
2022-12-13T11:40:22.878Z,15.30
2022-12-13T11:42:27.579Z,15.30
2022-12-13T11:44:48.490Z,15.30
2022-12-13T11:46:58.155Z,15.40
2022-12-13T11:49:02.051Z,15.40
2022-12-13T11:51:05.854Z,15.40
2022-12-13T11:53:10.792Z,15.40
2022-12-13T11:55:12.518Z,15.40
2022-12-13T11:57:37.708Z,15.40
2022-12-13T11:59:42.187Z,15.50
2022-12-13T12:01:55.791Z,15.50
2022-12-13T12:04:27.364Z,15.50
2022-12-13T12:06:32.614Z,15.50
2022-12-13T12:08:40.543Z,15.50
2022-12-13T12:10:49.466Z,15.50
2022-12-13T12:13:02.442Z,15.50
2022-12-13T12:15:30.641Z,15.50
2022-12-13T12:17:41.981Z,15.60
2022-12-13T12:19:45.230Z,15.60
2022-12-13T12:24:20.157Z,15.60
2022-12-13T12:26:26.117Z,15.50
2022-12-13T12:28:46.992Z,15.60
2022-12-13T12:30:48.778Z,15.50
2022-12-13T12:32:53.206Z,15.50
2022-12-13T12:35:01.255Z,15.50
2022-12-13T12:37:07.836Z,15.50
2022-12-13T12:41:48.651Z,15.50
2022-12-13T12:44:30.495Z,15.50
2022-12-13T12:46:52.305Z,15.40
2022-12-13T12:49:15.555Z,15.50
2022-12-13T12:51:41.916Z,15.50
2022-12-13T12:53:43.698Z,15.60
2022-12-13T12:55:45.560Z,15.60
2022-12-13T12:58:04.119Z,15.60
2022-12-13T13:00:11.455Z,15.60
2022-12-13T13:02:21.692Z,15.60
2022-12-13T13:04:27.202Z,15.50
2022-12-13T13:06:33.484Z,15.50
2022-12-13T13:08:39.750Z,15.50
2022-12-13T13:10:42.422Z,15.60
2022-12-13T13:12:52.296Z,15.60
2022-12-13T13:15:24.014Z,15.60
2022-12-13T13:17:25.913Z,15.60
2022-12-13T13:19:30.819Z,15.50
2022-12-13T13:21:34.179Z,15.50
2022-12-13T13:23:40.939Z,15.40
2022-12-13T13:26:16.283Z,15.40
2022-12-13T13:28:15.778Z,15.40
2022-12-13T13:30:22.012Z,15.40
2022-12-13T13:32:28.692Z,15.50
2022-12-13T13:34:33.395Z,15.50
2022-12-13T13:36:41.729Z,15.50
2022-12-13T13:38:50.774Z,15.50
2022-12-13T13:40:52.550Z,15.50
2022-12-13T13:42:57.158Z,15.50
2022-12-13T13:45:17.531Z,15.50
2022-12-13T13:47:19.324Z,15.50
2022-12-13T13:49:21.155Z,15.40
2022-12-13T13:51:49.442Z,15.40
2022-12-13T13:53:59.817Z,15.40
2022-12-13T13:56:34.018Z,15.40
2022-12-13T13:58:38.904Z,15.30
2022-12-13T14:00:46.678Z,15.40
2022-12-13T14:02:54.739Z,15.40
2022-12-13T14:05:09.446Z,15.40
2022-12-13T14:07:26.948Z,15.40
2022-12-13T14:09:43.945Z,15.40
2022-12-13T14:11:54.656Z,15.40
2022-12-13T14:14:22.145Z,15.50
2022-12-13T14:16:30.636Z,15.50
2022-12-13T14:18:44.691Z,15.40
2022-12-13T14:20:54.001Z,15.30
2022-12-13T14:22:58.546Z,15.30
2022-12-13T14:25:26.726Z,15.30
2022-12-13T14:27:35.635Z,15.30
2022-12-13T14:29:39.330Z,15.40
2022-12-13T14:31:41.101Z,15.40
2022-12-13T14:33:47.532Z,15.40
2022-12-13T14:36:12.118Z,15.30
2022-12-13T14:38:20.627Z,15.30
2022-12-13T14:40:25.414Z,15.30
2022-12-13T14:42:28.701Z,15.30
2022-12-13T14:44:34.481Z,15.30
2022-12-13T14:46:36.905Z,15.30
2022-12-13T14:48:44.250Z,15.30
2022-12-13T14:50:46.326Z,15.30
2022-12-13T14:52:49.039Z,15.30
2022-12-13T14:54:58.105Z,15.20
2022-12-13T14:57:01.573Z,15.20
2022-12-13T14:59:04.391Z,15.30
2022-12-13T15:01:06.811Z,15.30
2022-12-13T15:03:19.905Z,15.30
2022-12-13T15:05:29.000Z,15.30
2022-12-13T15:07:31.177Z,15.30
2022-12-13T15:09:38.813Z,15.30
2022-12-13T15:11:41.731Z,15.30
2022-12-13T15:13:44.868Z,15.30
2022-12-13T15:15:52.276Z,15.30
2022-12-13T15:18:06.363Z,15.30
2022-12-13T15:20:20.627Z,15.30
2022-12-13T15:22:29.138Z,15.30
2022-12-13T15:24:38.090Z,15.30
2022-12-13T15:26:42.895Z,15.30
2022-12-13T15:28:46.355Z,15.30
2022-12-13T15:30:48.842Z,15.20
2022-12-13T15:33:33.135Z,15.30
2022-12-13T15:35:37.685Z,15.30
2022-12-13T15:37:39.472Z,15.30
2022-12-13T15:39:48.035Z,15.30
2022-12-13T15:41:50.587Z,15.30
2022-12-13T15:43:54.075Z,15.30
2022-12-13T15:45:56.022Z,15.30
2022-12-13T15:47:57.973Z,15.30
2022-12-13T15:50:05.250Z,15.30
2022-12-13T15:52:24.095Z,15.30
2022-12-13T15:54:25.818Z,15.30
2022-12-13T15:56:37.619Z,15.30
2022-12-13T15:58:40.687Z,15.30
2022-12-13T16:00:48.034Z,15.30
2022-12-13T16:03:09.623Z,15.30
2022-12-13T16:05:24.111Z,15.30
2022-12-13T16:07:29.594Z,15.40
2022-12-13T16:09:33.695Z,15.30
2022-12-13T16:11:37.066Z,15.30
2022-12-13T16:13:38.879Z,15.30
2022-12-13T16:15:48.284Z,15.40
2022-12-13T16:18:10.505Z,15.40
2022-12-13T16:20:13.686Z,15.40
2022-12-13T16:22:15.516Z,15.40
2022-12-13T16:24:17.265Z,15.40
2022-12-13T16:26:21.678Z,15.40
2022-12-13T16:28:26.353Z,15.40
2022-12-13T16:30:29.227Z,15.40
2022-12-13T16:32:36.044Z,15.30
2022-12-13T16:34:41.772Z,15.30
2022-12-13T16:36:43.944Z,15.30
2022-12-13T16:38:49.316Z,15.30
2022-12-13T16:40:53.540Z,15.30
2022-12-13T16:42:59.897Z,15.30
2022-12-13T16:45:32.462Z,15.30
2022-12-13T16:47:36.404Z,15.30
2022-12-13T16:49:44.013Z,15.30
2022-12-13T16:51:48.528Z,15.30
2022-12-13T16:53:50.963Z,15.30
2022-12-13T16:55:58.578Z,15.30
2022-12-13T16:58:10.047Z,15.30
2022-12-13T17:00:12.382Z,15.30
2022-12-13T17:02:16.851Z,15.20
2022-12-13T17:04:23.191Z,15.30
2022-12-13T17:06:25.854Z,15.30
2022-12-13T17:08:27.764Z,15.30
2022-12-13T17:10:29.553Z,15.20
2022-12-13T17:12:31.451Z,15.20
2022-12-13T17:14:33.246Z,15.20
2022-12-13T17:16:35.201Z,15.20
2022-12-13T17:18:37.022Z,15.10
2022-12-13T17:20:38.882Z,15.20
2022-12-13T17:22:41.090Z,15.20
2022-12-13T17:24:44.212Z,15.10
2022-12-13T17:26:54.693Z,15.10
2022-12-13T17:28:57.019Z,15.10
2022-12-13T17:31:08.756Z,15.10
2022-12-13T17:33:11.169Z,15.10
2022-12-13T17:35:17.853Z,15.10
2022-12-13T17:37:20.388Z,15.10
2022-12-13T17:39:22.194Z,15.10
2022-12-13T17:41:24.248Z,15.10
2022-12-13T17:43:33.726Z,15.10
2022-12-13T17:45:36.840Z,15.10
2022-12-13T17:47:38.610Z,15.10
2022-12-13T17:49:40.486Z,15.10
2022-12-13T17:51:42.315Z,15.10
2022-12-13T17:53:53.127Z,15.10
2022-12-13T17:55:55.701Z,15.10
2022-12-13T17:58:01.228Z,15.10
2022-12-13T18:00:06.488Z,15.10
2022-12-13T18:02:14.438Z,15.10
2022-12-13T18:04:16.593Z,15.10
2022-12-13T18:06:18.482Z,15.10
2022-12-13T18:08:20.266Z,15.10
2022-12-13T18:10:26.358Z,15.10
2022-12-13T18:12:31.536Z,15.10
2022-12-13T18:14:33.468Z,15.10
2022-12-13T18:16:38.821Z,15.10
2022-12-13T18:18:41.104Z,15.10
2022-12-13T18:20:43.538Z,15.10
2022-12-13T18:22:51.147Z,15.10
2022-12-13T18:24:53.216Z,15.20
2022-12-13T18:26:56.250Z,14.50
2022-12-13T18:28:58.061Z,13.20
2022-12-13T18:31:03.762Z,13.20
2022-12-13T18:33:06.473Z,13.50
2022-12-13T18:35:08.306Z,13.70
2022-12-13T18:37:10.063Z,13.90
2022-12-13T18:39:11.904Z,14.00
2022-12-13T18:41:20.958Z,14.10
2022-12-13T18:43:25.899Z,14.20
2022-12-13T18:45:27.654Z,14.30
2022-12-13T18:47:29.755Z,14.30
2022-12-13T18:49:31.868Z,14.40
2022-12-13T18:51:33.889Z,14.50
2022-12-13T18:53:36.333Z,14.60
2022-12-13T18:55:38.207Z,14.60
2022-12-13T18:57:39.934Z,14.70
2022-12-13T18:59:41.713Z,14.70
2022-12-13T19:01:56.194Z,14.80
2022-12-13T19:03:58.108Z,14.90
2022-12-13T19:06:01.119Z,15.00
2022-12-13T19:08:04.969Z,15.10
2022-12-13T19:10:06.825Z,15.10
2022-12-13T19:12:08.694Z,15.20
2022-12-13T19:14:10.460Z,15.20
2022-12-13T19:16:13.597Z,15.40
2022-12-13T19:18:15.761Z,15.30
2022-12-13T19:20:17.611Z,15.30
2022-12-13T19:22:19.674Z,15.30
2022-12-13T19:24:21.486Z,15.30
2022-12-13T19:26:23.240Z,15.30
2022-12-13T19:28:25.414Z,15.30
2022-12-13T19:30:27.203Z,15.30
2022-12-13T19:32:29.052Z,15.30
2022-12-13T19:34:30.828Z,15.30
2022-12-13T19:36:32.999Z,15.20
2022-12-13T19:38:34.882Z,15.20
2022-12-13T19:40:42.469Z,15.30
2022-12-13T19:42:44.296Z,15.20
2022-12-13T19:44:46.163Z,15.20
2022-12-13T19:46:47.986Z,15.30
2022-12-13T19:48:50.086Z,15.20
2022-12-13T19:50:51.939Z,15.30
2022-12-13T19:52:53.794Z,15.30
2022-12-13T19:54:55.555Z,15.20
2022-12-13T19:57:00.158Z,15.20
2022-12-13T19:59:05.696Z,15.20
2022-12-13T20:01:08.035Z,15.20
2022-12-13T20:03:09.911Z,15.20
2022-12-13T20:05:11.760Z,15.20
2022-12-13T20:07:13.508Z,15.30
2022-12-13T20:09:15.534Z,15.20
2022-12-13T20:11:19.142Z,15.20
2022-12-13T20:13:20.915Z,15.20
2022-12-13T20:15:22.733Z,15.20
2022-12-13T20:17:24.543Z,15.20
2022-12-13T20:19:26.330Z,15.20
2022-12-13T20:21:28.712Z,15.10
2022-12-13T20:23:32.387Z,15.20
2022-12-13T20:25:34.254Z,15.10
2022-12-13T20:27:36.376Z,15.10
2022-12-13T20:29:38.205Z,15.20
2022-12-13T20:31:40.116Z,15.10
2022-12-13T20:33:41.999Z,15.20
2022-12-13T20:36:07.454Z,15.20
2022-12-13T20:38:05.563Z,15.10
2022-12-13T20:40:07.591Z,15.10
2022-12-13T20:42:09.474Z,15.10
2022-12-13T20:44:12.032Z,15.10
2022-12-13T20:46:14.627Z,15.10
2022-12-13T20:48:17.543Z,15.20
2022-12-13T20:50:19.378Z,15.20
2022-12-13T20:52:21.431Z,15.10
2022-12-13T20:54:23.255Z,15.10
2022-12-13T20:56:26.540Z,15.10
2022-12-13T20:58:28.370Z,15.10
2022-12-13T21:00:30.230Z,15.10
2022-12-13T21:02:32.102Z,15.10
2022-12-13T21:04:33.854Z,15.10
2022-12-13T21:06:36.411Z,15.10
2022-12-13T21:08:38.422Z,15.10
2022-12-13T21:10:40.818Z,15.10
2022-12-13T21:12:42.633Z,15.10
2022-12-13T21:14:44.484Z,15.10
2022-12-13T21:16:47.468Z,15.10
2022-12-13T21:18:49.339Z,15.10
2022-12-13T21:20:54.784Z,15.10
2022-12-13T21:22:56.626Z,15.10
2022-12-13T21:24:58.430Z,15.10
2022-12-13T21:27:00.301Z,15.10
2022-12-13T21:29:03.766Z,15.10
2022-12-13T21:31:07.011Z,15.10
2022-12-13T21:33:08.767Z,15.10
2022-12-13T21:35:10.556Z,15.10
2022-12-13T21:37:14.015Z,15.10
2022-12-13T21:39:15.835Z,15.10
2022-12-13T21:41:17.593Z,15.10
2022-12-13T21:43:19.419Z,15.10
2022-12-13T21:45:21.203Z,15.10
2022-12-13T21:47:23.047Z,15.10
2022-12-13T21:49:24.799Z,15.10
2022-12-13T21:51:27.781Z,15.10
2022-12-13T21:53:30.739Z,15.10
2022-12-13T21:55:40.464Z,15.10
2022-12-13T21:57:42.273Z,15.10
2022-12-13T21:59:44.126Z,15.10
2022-12-13T22:01:54.909Z,15.10
2022-12-13T22:03:56.801Z,15.10
2022-12-13T22:05:58.529Z,15.10
2022-12-13T22:08:00.398Z,15.10
2022-12-13T22:10:02.569Z,15.10
2022-12-13T22:12:08.718Z,15.10
2022-12-13T22:14:10.523Z,15.20
2022-12-13T22:16:12.339Z,15.20
2022-12-13T22:18:14.274Z,15.20
2022-12-13T22:20:16.164Z,15.20
2022-12-13T22:22:18.648Z,15.10
2022-12-13T22:24:20.457Z,15.10
2022-12-13T22:26:23.167Z,15.10
2022-12-13T22:28:28.013Z,15.20
2022-12-13T22:30:30.171Z,15.20
2022-12-13T22:32:32.028Z,15.20
2022-12-13T22:34:33.771Z,15.20
2022-12-13T22:36:35.604Z,15.20
2022-12-13T22:38:37.423Z,15.10
2022-12-13T22:40:39.227Z,15.10
2022-12-13T22:42:40.970Z,15.10
2022-12-13T22:44:42.824Z,15.10
2022-12-13T22:46:44.594Z,15.10
2022-12-13T22:48:46.735Z,15.20
2022-12-13T22:50:48.520Z,15.20
2022-12-13T22:52:51.197Z,15.20
2022-12-13T22:54:52.955Z,15.20
2022-12-13T22:56:54.785Z,15.10
2022-12-13T22:58:57.553Z,15.10
2022-12-13T23:01:06.300Z,15.10
2022-12-13T23:03:08.597Z,15.20
2022-12-13T23:05:10.448Z,15.10
2022-12-13T23:07:12.203Z,15.10
2022-12-13T23:09:14.408Z,15.10
2022-12-13T23:11:16.194Z,15.20
2022-12-13T23:13:17.984Z,15.10
2022-12-13T23:15:20.319Z,15.20
2022-12-13T23:17:22.168Z,15.10
2022-12-13T23:21:48.473Z,15.10
2022-12-13T23:23:50.555Z,15.10
2022-12-13T23:25:52.383Z,15.10
2022-12-13T23:27:54.178Z,15.10
2022-12-13T23:29:56.291Z,15.10
2022-12-13T23:31:58.031Z,15.10
2022-12-13T23:33:59.919Z,15.10
2022-12-13T23:36:09.213Z,15.10
2022-12-13T23:38:11.454Z,15.10
2022-12-13T23:40:13.245Z,15.10
2022-12-13T23:42:15.621Z,15.10
2022-12-13T23:44:17.368Z,15.10
2022-12-13T23:46:20.312Z,15.10
2022-12-13T23:48:26.738Z,15.10
2022-12-13T23:50:28.945Z,15.10
2022-12-13T23:52:30.735Z,15.10
2022-12-13T23:54:32.537Z,15.10
2022-12-13T23:56:34.290Z,15.10
2022-12-13T23:58:37.468Z,15.10
